Time;durP1;ratioP1;P1;durP2;ratioP2;P2;SDS_P1;SDS_P2;PMS_P1;PMS_P2;Temp;Humidity;BMP_temperature;BMP_pressure;BME280_temperature;BME280_humidity;BME280_pressure;Samples;Min_cycle;Max_cycle;Signal;HPM_P1;HPM_P2
2022/05/02 00:02:39;;;;;;;7.70;5.93;;;;;;;7.05;100.00;101170.56;5978408;29;20046;-92
2022/05/02 00:05:41;;;;;;;6.70;5.60;;;;;;;7.04;100.00;101173.22;5965276;29;20935;-92
2022/05/02 00:08:43;;;;;;;8.75;5.53;;;;;;;7.04;100.00;101163.75;5970027;29;20804;-92
2022/05/02 00:11:45;;;;;;;8.50;5.80;;;;;;;7.04;100.00;101158.59;5973083;29;20046;-92
2022/05/02 00:14:46;;;;;;;8.60;5.85;;;;;;;7.02;100.00;101160.44;5965913;29;20663;-92
2022/05/02 00:18:02;;;;;;;7.57;5.80;;;;;;;7.05;100.00;101162.84;5976119;29;20038;-92
2022/05/02 00:21:04;;;;;;;8.82;5.78;;;;;;;6.97;100.00;101162.41;5971369;29;20058;-92
2022/05/02 00:24:07;;;;;;;6.53;5.78;;;;;;;6.87;100.00;101158.69;5969989;29;20114;-92
2022/05/02 00:27:09;;;;;;;7.53;6.05;;;;;;;6.75;100.00;101162.72;5969552;29;20294;-91
2022/05/02 00:30:12;;;;;;;7.22;5.50;;;;;;;6.65;100.00;101149.50;5952639;29;20401;-92
2022/05/02 00:33:15;;;;;;;7.68;5.60;;;;;;;6.58;100.00;101145.59;5953938;29;20050;-92
2022/05/02 00:36:17;;;;;;;9.43;6.47;;;;;;;6.51;100.00;101143.44;5972839;29;20121;-92
2022/05/02 00:39:19;;;;;;;7.57;5.82;;;;;;;6.38;100.00;101148.38;5944146;29;20058;-92
2022/05/02 00:42:21;;;;;;;8.88;5.70;;;;;;;6.33;100.00;101140.06;5974277;29;20070;-92
2022/05/02 00:45:23;;;;;;;7.35;5.68;;;;;;;6.26;100.00;101144.72;5973242;29;20062;-92
2022/05/02 00:48:24;;;;;;;7.72;5.82;;;;;;;6.19;100.00;101143.38;5970190;29;20046;-92
2022/05/02 00:51:26;;;;;;;6.32;5.55;;;;;;;6.12;100.00;101136.88;5974365;29;20193;-92
2022/05/02 00:54:28;;;;;;;6.38;5.68;;;;;;;6.04;100.00;101135.50;5967644;29;20053;-92
2022/05/02 00:57:32;;;;;;;9.02;6.18;;;;;;;5.99;100.00;101134.09;5970022;29;20049;-92
2022/05/02 01:00:37;;;;;;;7.45;5.55;;;;;;;5.94;100.00;101134.31;5969375;29;20035;-92
2022/05/02 01:03:39;;;;;;;7.20;5.60;;;;;;;5.91;100.00;101133.59;5964380;29;20092;-91
2022/05/02 01:10:02;;;;;;;7.30;5.15;;;;;;;5.86;100.00;101135.56;5956781;29;20051;-91
2022/05/02 01:13:04;;;;;;;8.55;6.70;;;;;;;5.89;100.00;101122.53;5968167;29;20141;-92
2022/05/02 01:16:19;;;;;;;9.20;6.07;;;;;;;5.86;100.00;101135.56;5968154;29;20803;-92
2022/05/02 01:19:21;;;;;;;8.23;6.05;;;;;;;5.96;100.00;101129.94;5963265;29;20074;-92
2022/05/02 01:22:22;;;;;;;7.28;5.63;;;;;;;6.02;100.00;101133.94;5955784;29;20058;-92
2022/05/02 01:25:24;;;;;;;7.75;6.13;;;;;;;6.03;100.00;101127.88;5968371;29;20141;-92
2022/05/02 01:28:28;;;;;;;7.55;5.93;;;;;;;6.10;100.00;101118.94;5970744;29;20039;-91
2022/05/02 01:31:30;;;;;;;6.80;5.95;;;;;;;6.10;100.00;101121.50;5971535;29;20091;-92
2022/05/02 01:34:36;;;;;;;8.88;5.90;;;;;;;6.03;100.00;101122.72;5975975;29;20049;-92
2022/05/02 01:37:38;;;;;;;6.70;5.40;;;;;;;5.97;100.00;101128.19;5964954;29;20489;-92
2022/05/02 01:40:40;;;;;;;9.30;5.97;;;;;;;5.92;100.00;101120.66;5969462;29;20106;-92
2022/05/02 01:43:43;;;;;;;7.90;5.47;;;;;;;5.87;100.00;101126.97;5956510;29;20143;-92
2022/05/02 01:46:45;;;;;;;7.75;5.55;;;;;;;5.75;100.00;101126.63;5982557;29;20042;-93
2022/05/02 01:49:47;;;;;;;7.07;6.28;;;;;;;5.66;100.00;101119.38;5990073;29;20053;-92
2022/05/02 01:52:49;;;;;;;8.18;5.65;;;;;;;5.66;100.00;101121.94;5962151;29;20093;-92
2022/05/02 01:55:52;;;;;;;10.27;6.13;;;;;;;5.63;100.00;101116.97;5984114;29;20058;-91
2022/05/02 01:58:54;;;;;;;7.70;5.72;;;;;;;5.63;100.00;101118.72;5971774;29;20101;-92
2022/05/02 02:01:56;;;;;;;7.50;6.18;;;;;;;5.57;100.00;101112.97;5966772;29;20133;-92
2022/05/02 02:08:21;;;;;;;8.02;6.35;;;;;;;5.66;100.00;101113.41;5956752;29;20046;-92
2022/05/02 02:11:23;;;;;;;9.68;5.82;;;;;;;5.73;100.00;101119.91;5970482;29;20275;-92
2022/05/02 02:14:25;;;;;;;8.85;6.10;;;;;;;5.68;100.00;101117.56;5954907;29;20421;-91
2022/05/02 02:17:27;;;;;;;10.13;6.30;;;;;;;5.80;100.00;101113.56;5975042;29;20501;-92
2022/05/02 02:20:29;;;;;;;7.25;5.72;;;;;;;5.82;100.00;101115.16;5969583;29;20057;-92
2022/05/02 02:23:31;;;;;;;7.15;5.90;;;;;;;5.82;100.00;101114.34;5977209;29;20080;-92
2022/05/02 02:26:33;;;;;;;7.13;5.75;;;;;;;5.78;100.00;101110.25;5978351;29;20079;-92
2022/05/02 02:29:35;;;;;;;9.10;6.40;;;;;;;5.71;100.00;101109.72;5974461;29;20090;-92
2022/05/02 02:32:37;;;;;;;8.20;5.38;;;;;;;5.64;100.00;101107.53;5983701;29;20053;-92
2022/05/02 02:35:39;;;;;;;8.25;5.78;;;;;;;5.61;100.00;101113.63;5979717;29;20078;-92
2022/05/02 02:38:41;;;;;;;9.25;6.00;;;;;;;5.55;100.00;101112.19;5950511;29;20046;-92
2022/05/02 02:41:43;;;;;;;8.32;6.10;;;;;;;5.52;100.00;101104.66;5972987;29;20058;-92
2022/05/02 02:44:45;;;;;;;8.00;6.70;;;;;;;5.54;100.00;101104.56;5978676;29;20053;-92
2022/05/02 02:47:47;;;;;;;7.85;5.40;;;;;;;5.57;100.00;101101.88;5974038;29;20501;-92
2022/05/02 02:50:49;;;;;;;6.65;5.75;;;;;;;5.60;100.00;101102.53;5973660;29;20495;-92
2022/05/02 02:53:51;;;;;;;7.22;5.60;;;;;;;5.58;100.00;101098.38;5975404;29;20050;-92
2022/05/02 02:56:53;;;;;;;8.00;5.95;;;;;;;5.59;100.00;101088.06;5973617;29;20042;-92
2022/05/02 02:59:55;;;;;;;11.45;5.60;;;;;;;5.57;100.00;101091.59;5974233;29;20560;-92
2022/05/02 03:02:57;;;;;;;6.82;5.03;;;;;;;5.62;100.00;101081.94;5964416;29;21092;-92
2022/05/02 03:06:05;;;;;;;7.53;5.65;;;;;;;5.57;100.00;101079.59;5972235;29;20057;-92
2022/05/02 03:09:07;;;;;;;7.72;5.55;;;;;;;5.57;100.00;101074.44;5958980;29;20061;-92
2022/05/02 03:12:09;;;;;;;6.20;5.22;;;;;;;5.57;100.00;101074.44;5969221;29;20513;-92
2022/05/02 03:15:11;;;;;;;9.18;5.60;;;;;;;5.63;100.00;101075.88;5957196;29;20046;-92
2022/05/02 03:18:13;;;;;;;7.55;5.35;;;;;;;5.73;100.00;101073.69;5971480;29;20051;-92
2022/05/02 03:21:15;;;;;;;8.57;6.20;;;;;;;5.78;100.00;101076.84;5960233;29;20050;-92
2022/05/02 03:24:17;;;;;;;7.82;5.88;;;;;;;5.82;100.00;101071.50;5959302;29;20047;-91
2022/05/02 03:27:19;;;;;;;8.02;6.03;;;;;;;5.91;100.00;101071.91;5979723;29;20188;-92
2022/05/02 03:30:22;;;;;;;6.18;5.57;;;;;;;5.96;100.00;101075.13;5953554;29;20356;-92
2022/05/02 03:33:27;;;;;;;8.90;5.60;;;;;;;5.93;100.00;101082.97;5970378;29;20053;-92
2022/05/02 03:36:28;;;;;;;7.20;5.63;;;;;;;5.95;100.00;101081.19;5974195;29;20050;-93
2022/05/02 03:39:30;;;;;;;8.43;5.80;;;;;;;6.00;100.00;101077.47;5953815;29;20270;-92
2022/05/02 03:42:32;;;;;;;8.55;6.00;;;;;;;6.13;100.00;101074.25;5961247;29;20058;-92
2022/05/02 03:45:36;;;;;;;6.90;5.30;;;;;;;6.17;100.00;101068.88;5975916;29;20593;-92
2022/05/02 03:48:37;;;;;;;13.15;6.20;;;;;;;6.19;100.00;101064.50;5965544;29;20134;-92
2022/05/02 03:51:39;;;;;;;7.70;5.25;;;;;;;6.19;100.00;101061.94;5974759;29;20054;-92
2022/05/02 03:54:41;;;;;;;7.88;5.85;;;;;;;6.11;100.00;101064.06;5982577;29;20060;-92
2022/05/02 03:57:43;;;;;;;6.72;5.15;;;;;;;5.99;100.00;101072.41;5972538;29;20560;-91
2022/05/02 04:00:46;;;;;;;6.90;6.13;;;;;;;5.89;100.00;101068.59;5966703;29;20058;-92
2022/05/02 04:03:49;;;;;;;7.03;5.53;;;;;;;5.85;100.00;101069.69;5966898;29;20053;-92
2022/05/02 04:06:51;;;;;;;6.30;5.18;;;;;;;5.76;100.00;101064.09;5952467;29;20054;-92
2022/05/02 04:09:52;;;;;;;7.40;5.20;;;;;;;5.73;100.00;101060.84;5975226;29;20520;-92
2022/05/02 04:12:54;;;;;;;7.30;5.88;;;;;;;5.69;100.00;101057.59;5974258;29;20053;-92
2022/05/02 04:15:56;;;;;;;7.20;5.63;;;;;;;5.79;100.00;101060.56;5967512;29;20649;-92
2022/05/02 04:18:58;;;;;;;9.05;6.43;;;;;;;5.89;100.00;101063.44;5947683;29;20046;-92
2022/05/02 04:22:00;;;;;;;8.13;5.63;;;;;;;5.98;100.00;101061.28;5964113;29;20513;-92
2022/05/02 04:25:02;;;;;;;7.13;5.80;;;;;;;6.10;100.00;101054.69;5959569;29;20525;-91
2022/05/02 04:28:05;;;;;;;8.98;5.80;;;;;;;6.23;100.00;101060.84;5966742;29;20046;-92
2022/05/02 04:31:07;;;;;;;7.82;6.00;;;;;;;6.35;100.00;101063.69;5966337;29;20035;-92
2022/05/02 04:34:09;;;;;;;7.65;5.55;;;;;;;6.47;100.00;101060.47;5984105;29;20050;-91
2022/05/02 04:37:11;;;;;;;7.07;5.32;;;;;;;6.57;100.00;101066.78;5951276;29;20046;-92
2022/05/02 04:40:13;;;;;;;6.70;5.53;;;;;;;6.55;100.00;101065.22;5965502;29;20057;-91
2022/05/02 04:43:15;;;;;;;8.77;5.65;;;;;;;6.50;100.00;101062.06;5971688;29;20058;-92
2022/05/02 04:46:19;;;;;;;7.38;5.75;;;;;;;6.39;100.00;101065.22;5970852;29;20389;-92
2022/05/02 04:49:21;;;;;;;8.35;5.68;;;;;;;6.34;100.00;101060.31;5975446;29;20050;-92
2022/05/02 04:52:23;;;;;;;7.30;5.93;;;;;;;6.28;100.00;101063.19;5969901;29;20053;-92
2022/05/02 04:55:25;;;;;;;7.10;5.18;;;;;;;6.25;100.00;101074.44;5970196;29;20101;-92
2022/05/02 04:58:27;;;;;;;6.25;5.00;;;;;;;6.20;100.00;101071.28;5972190;29;20058;-92
2022/05/02 05:01:28;;;;;;;8.80;5.30;;;;;;;6.17;100.00;101076.59;5970975;29;20046;-92
2022/05/02 05:04:31;;;;;;;7.78;5.75;;;;;;;6.18;100.00;101075.69;5952137;29;20466;-92
2022/05/02 05:07:32;;;;;;;7.72;5.25;;;;;;;6.22;100.00;101077.19;5969686;29;20145;-92
2022/05/02 05:11:22;;;;;;;8.20;5.63;;;;;;;6.27;100.00;101078.69;5970675;29;20517;-92
2022/05/02 05:18:28;;;;;;;6.95;5.43;;;;;;;6.39;100.00;101078.06;5951227;29;20156;-92
2022/05/02 05:21:56;;;;;;;9.40;6.20;;;;;;;6.50;100.00;101078.31;5945783;29;20036;-92
2022/05/02 05:25:35;;;;;;;10.10;6.00;;;;;;;6.73;100.00;101077.06;5949454;29;20269;-93
2022/05/02 05:29:03;;;;;;;8.15;6.38;;;;;;;6.92;100.00;101076.09;5932956;29;20105;-92
2022/05/02 05:32:46;;;;;;;6.57;5.65;;;;;;;7.17;100.00;101073.81;5892013;30;20857;-92
2022/05/02 05:36:06;;;;;;;8.50;6.60;;;;;;;7.42;100.00;101069.84;5893499;30;20079;-92
2022/05/02 05:39:25;;;;;;;8.33;6.03;;;;;;;7.67;100.00;101075.25;5879545;30;20056;-92
2022/05/02 05:42:52;;;;;;;7.78;5.72;;;;;;;7.90;100.00;101081.66;5876159;30;20039;-92
2022/05/02 05:46:33;;;;;;;10.70;6.03;;;;;;;8.08;100.00;101084.06;5874967;30;20058;-90
2022/05/02 05:49:58;;;;;;;9.97;6.00;;;;;;;8.19;100.00;101079.09;5898507;30;20066;-92
2022/05/02 05:53:37;;;;;;;8.05;5.95;;;;;;;8.36;100.00;101078.06;5896904;30;20306;-92
2022/05/02 05:57:21;;;;;;;9.80;6.63;;;;;;;8.54;100.00;101076.13;5895699;30;20142;-92
2022/05/02 06:00:24;;;;;;;9.93;6.32;;;;;;;8.80;100.00;101077.13;5913971;30;20051;-93
2022/05/02 06:03:37;;;;;;;7.78;5.80;;;;;;;9.03;100.00;101078.25;5892503;30;20067;-93
2022/05/02 06:06:40;;;;;;;9.95;6.53;;;;;;;9.20;100.00;101080.56;5905505;30;20060;-92
2022/05/02 06:09:43;;;;;;;7.75;5.40;;;;;;;9.39;100.00;101076.78;5944622;29;20058;-92
2022/05/02 06:12:46;;;;;;;10.18;7.40;;;;;;;9.54;100.00;101072.38;5962250;29;20122;-93
2022/05/02 06:19:17;;;;;;;9.88;5.65;;;;;;;10.05;100.00;101078.41;5975469;29;20079;-93
2022/05/02 06:22:21;;;;;;;7.63;5.68;;;;;;;10.27;100.00;101077.78;5973199;29;20057;-93
2022/05/02 06:25:24;;;;;;;6.72;5.43;;;;;;;10.50;100.00;101072.78;5969577;29;20050;-92
2022/05/02 06:28:31;;;;;;;9.20;6.20;;;;;;;10.67;100.00;101067.25;5958022;29;20081;-92
2022/05/02 06:31:40;;;;;;;8.30;5.95;;;;;;;10.78;100.00;101077.69;5956821;29;20106;-92
2022/05/02 06:34:42;;;;;;;9.80;5.80;;;;;;;10.88;97.61;101071.84;5976236;29;20062;-92
2022/05/02 06:38:03;;;;;;;7.20;5.53;;;;;;;10.96;96.37;101075.56;5969510;29;20050;-92
2022/05/02 06:41:33;;;;;;;8.75;5.30;;;;;;;11.09;96.90;101077.25;5967967;29;20253;-92
2022/05/02 06:44:57;;;;;;;8.35;5.97;;;;;;;11.25;97.96;101070.00;5983381;29;20050;-93
2022/05/02 06:48:26;;;;;;;7.65;5.85;;;;;;;11.45;98.97;101075.50;5969662;29;20046;-92
2022/05/02 06:51:49;;;;;;;10.90;6.82;;;;;;;11.63;97.29;101079.34;5971160;29;20083;-92
2022/05/02 06:55:28;;;;;;;6.30;5.30;;;;;;;11.76;95.11;101079.25;5960131;29;20437;-92
2022/05/02 06:58:45;;;;;;;7.88;5.82;;;;;;;11.82;96.13;101089.97;5922684;29;20184;-92
2022/05/02 07:01:53;;;;;;;9.57;6.53;;;;;;;11.78;93.27;101088.56;5926808;29;20062;-92
2022/05/02 07:04:56;;;;;;;8.35;5.85;;;;;;;11.82;93.47;101095.16;5919543;29;20525;-93
2022/05/02 07:07:58;;;;;;;8.27;6.30;;;;;;;11.92;91.17;101087.53;5920218;29;20589;-94
2022/05/02 07:11:11;;;;;;;8.60;6.10;;;;;;;11.86;93.73;101087.97;5919690;29;20058;-94
2022/05/02 07:14:56;;;;;;;8.32;5.82;;;;;;;11.91;92.87;101079.88;5912933;29;20545;-94
2022/05/02 07:18:26;;;;;;;11.23;6.03;;;;;;;11.97;92.98;101072.44;5922995;29;20051;-93
2022/05/02 07:21:58;;;;;;;8.77;6.43;;;;;;;12.13;92.90;101079.91;5925676;29;20093;-93
2022/05/02 07:24:59;;;;;;;10.02;7.38;;;;;;;12.33;91.68;101077.53;5926448;29;20055;-94
2022/05/02 07:28:35;;;;;;;13.20;7.75;;;;;;;12.46;92.17;101075.63;5925169;29;20063;-93
2022/05/02 07:31:39;;;;;;;8.77;6.80;;;;;;;12.52;90.73;101080.38;5927829;29;20082;-93
2022/05/02 07:34:42;;;;;;;10.48;7.15;;;;;;;12.60;90.76;101085.78;5928944;29;20137;-94
2022/05/02 07:37:48;;;;;;;9.25;6.70;;;;;;;12.76;89.23;101082.78;5972288;29;20046;-93
2022/05/02 07:44:13;;;;;;;12.10;6.72;;;;;;;13.40;89.36;101089.81;5972792;29;20050;-94
2022/05/02 07:47:16;;;;;;;10.45;7.25;;;;;;;13.53;87.41;101084.41;5960946;29;20054;-94
2022/05/02 07:50:25;;;;;;;7.88;6.90;;;;;;;13.54;87.25;101075.69;5972950;29;20042;-94
2022/05/02 07:53:28;;;;;;;8.20;6.40;;;;;;;13.66;85.80;101079.84;5970441;29;20489;-93
2022/05/02 07:56:32;;;;;;;9.73;7.32;;;;;;;13.85;86.36;101081.75;5971529;29;20682;-94
2022/05/02 07:59:40;;;;;;;10.40;6.60;;;;;;;13.95;83.80;101081.78;5976858;29;20053;-95
2022/05/02 08:02:43;;;;;;;8.88;6.18;;;;;;;14.13;82.09;101089.81;5973488;29;20046;-94
2022/05/02 08:05:49;;;;;;;9.05;6.80;;;;;;;14.14;81.51;101088.88;5972710;29;20042;-94
2022/05/02 08:09:16;;;;;;;10.40;7.07;;;;;;;14.08;82.53;101084.19;5945903;29;20046;-93
2022/05/02 08:12:39;;;;;;;11.25;6.55;;;;;;;14.05;78.67;101082.66;5971923;29;20066;-94
2022/05/02 08:15:53;;;;;;;8.95;6.88;;;;;;;13.93;82.64;101075.88;5972992;29;20050;-95
2022/05/02 08:19:34;;;;;;;10.65;7.22;;;;;;;13.94;80.06;101077.56;5976873;29;20127;-94
2022/05/02 08:29:47;;;;;;;11.15;7.00;;;;;;;14.03;77.58;101074.16;5970976;29;20489;-94
2022/05/02 08:33:06;;;;;;;8.82;6.40;;;;;;;14.21;78.96;101082.19;5974581;29;20050;-94
2022/05/02 08:36:24;;;;;;;8.57;5.97;;;;;;;14.49;77.64;101087.63;5971447;29;20137;-94
2022/05/02 08:39:40;;;;;;;10.20;6.57;;;;;;;14.62;74.96;101089.06;5953443;29;20046;-93
2022/05/02 08:43:10;;;;;;;10.80;6.85;;;;;;;14.76;73.95;101079.22;5950495;29;20058;-94
2022/05/02 08:47:00;;;;;;;8.88;6.57;;;;;;;14.82;75.64;101073.47;5966528;29;20521;-94
2022/05/02 08:50:46;;;;;;;12.38;6.50;;;;;;;14.78;75.05;101072.91;5973500;29;20425;-94
2022/05/02 08:53:58;;;;;;;7.85;5.80;;;;;;;14.74;78.25;101076.75;5967004;29;20556;-94
2022/05/02 08:57:37;;;;;;;9.50;6.38;;;;;;;14.80;74.77;101070.97;5971358;29;20046;-94
2022/05/02 09:01:29;;;;;;;6.70;6.07;;;;;;;14.69;74.30;101067.69;5972345;29;20341;-93
2022/05/02 09:05:00;;;;;;;9.82;6.25;;;;;;;14.44;76.30;101065.41;5901243;30;20056;-94
2022/05/02 09:08:24;;;;;;;11.50;6.17;;;;;;;14.34;76.44;101059.34;5894702;30;20088;-93
2022/05/02 09:11:47;;;;;;;9.02;6.00;;;;;;;14.38;77.06;101050.31;5888941;30;20127;-93
2022/05/02 09:15:12;;;;;;;8.38;6.47;;;;;;;14.38;79.28;101055.53;5893103;30;20070;-94
2022/05/02 09:18:53;;;;;;;9.25;5.78;;;;;;;14.52;76.89;101056.09;5908553;30;20051;-94
2022/05/02 09:22:36;;;;;;;10.40;6.47;;;;;;;14.63;79.85;101054.25;5905603;30;20067;-94
2022/05/02 09:26:06;;;;;;;7.82;5.43;;;;;;;14.57;76.29;101048.72;5910484;30;20059;-94
2022/05/02 09:29:41;;;;;;;6.90;5.60;;;;;;;14.58;76.64;101043.41;5897013;30;20063;-94
2022/05/02 09:32:45;;;;;;;9.35;5.28;;;;;;;14.68;76.57;101046.00;5901328;30;20048;-95
2022/05/02 09:36:02;;;;;;;8.25;5.60;;;;;;;14.75;78.22;101038.47;5957153;29;20098;-95
2022/05/02 09:39:12;;;;;;;8.93;6.30;;;;;;;14.90;79.40;101033.69;5975437;29;20049;-94
2022/05/02 09:42:41;;;;;;;7.35;5.68;;;;;;;15.14;75.78;101039.31;5958968;29;20046;-94
2022/05/02 09:50:03;;;;;;;10.68;6.30;;;;;;;15.37;70.84;101026.78;5972423;29;20323;-94
2022/05/02 09:53:52;;;;;;;5.85;5.22;;;;;;;15.41;67.60;101020.34;5969037;29;20046;-94
2022/05/02 09:56:58;;;;;;;12.32;5.97;;;;;;;15.41;66.77;101007.28;5954241;29;20046;-94
2022/05/02 10:04:03;;;;;;;7.70;5.78;;;;;;;15.56;68.22;101005.06;5968655;29;20042;-94
2022/05/02 10:07:08;;;;;;;8.13;5.55;;;;;;;15.55;71.82;101003.38;5979586;29;20427;-94
2022/05/02 10:10:43;;;;;;;8.57;5.28;;;;;;;15.70;68.88;101002.03;5979241;29;20038;-95
2022/05/02 10:14:05;;;;;;;9.23;5.95;;;;;;;15.81;68.28;100998.41;5976427;29;20259;-95
2022/05/02 10:17:11;;;;;;;8.13;5.60;;;;;;;15.88;67.60;100994.25;5971675;29;20038;-95
2022/05/02 10:20:18;;;;;;;9.55;5.70;;;;;;;16.07;65.45;100990.75;5974091;29;20070;-92
2022/05/02 10:23:45;;;;;;;6.78;5.10;;;;;;;16.21;60.41;100985.97;5974567;29;20078;-92
2022/05/02 10:27:25;;;;;;;7.05;4.90;;;;;;;16.34;60.44;100983.81;5964776;29;20054;-93
2022/05/02 10:31:02;;;;;;;6.35;4.55;;;;;;;16.47;58.36;100986.06;5968910;29;20054;-92
2022/05/02 10:34:04;;;;;;;7.82;5.40;;;;;;;16.70;59.61;100989.91;5881550;30;20063;-93
2022/05/02 10:37:07;;;;;;;5.90;4.90;;;;;;;16.62;51.37;100986.38;5881117;30;20575;-92
2022/05/02 10:40:12;;;;;;;6.10;5.15;;;;;;;16.65;53.41;100978.25;5872576;30;20048;-92
2022/05/02 10:43:24;;;;;;;6.13;4.70;;;;;;;16.78;54.46;100981.34;5885062;30;20130;-91
2022/05/02 10:46:31;;;;;;;7.25;5.00;;;;;;;16.86;53.37;100976.16;5880143;30;20056;-94
2022/05/02 10:49:52;;;;;;;5.90;4.55;;;;;;;17.01;51.62;100969.41;5873651;30;20139;-93
2022/05/02 10:53:24;;;;;;;8.77;4.95;;;;;;;17.03;51.73;100958.00;5881602;30;20048;-94
2022/05/02 10:56:43;;;;;;;8.90;5.32;;;;;;;17.17;52.20;100954.84;5881494;30;20063;-91
2022/05/02 10:59:50;;;;;;;5.22;4.72;;;;;;;17.22;52.30;100958.63;5886157;30;20141;-93
2022/05/02 11:02:55;;;;;;;6.00;5.28;;;;;;;17.34;52.53;100948.72;5883690;30;20462;-93
2022/05/02 11:06:10;;;;;;;6.82;5.38;;;;;;;17.35;50.62;100947.75;5882190;30;20397;-91
2022/05/02 11:09:44;;;;;;;8.77;4.93;;;;;;;17.50;51.55;100944.56;5887693;29;20047;-93
2022/05/02 11:13:12;;;;;;;6.07;4.80;;;;;;;17.62;50.72;100944.13;5879467;30;20125;-92
2022/05/02 11:16:26;;;;;;;8.30;5.65;;;;;;;17.80;52.18;100936.19;5883847;30;20059;-93
2022/05/02 11:23:08;;;;;;;;;;;;;;;17.98;53.57;100932.66;5877043;30;20060;-93
2022/05/02 11:26:37;;;;;;;7.15;5.78;;;;;;;18.14;51.88;100927.47;5882390;30;19928;-93
2022/05/02 11:29:48;;;;;;;7.93;5.68;;;;;;;18.17;49.52;100929.75;5859267;30;20682;-92
2022/05/02 11:32:54;;;;;;;12.55;6.00;;;;;;;18.19;50.50;100926.97;5879614;30;20082;-93
2022/05/02 11:36:02;;;;;;;6.32;5.72;;;;;;;18.24;51.39;100916.84;5888092;30;20146;-92
2022/05/02 11:39:08;;;;;;;6.22;4.88;;;;;;;18.28;52.99;100920.75;5880246;30;20515;-91
2022/05/02 11:42:14;;;;;;;6.07;4.47;;;;;;;18.47;52.59;100925.69;5882112;30;20771;-90
2022/05/02 11:45:17;;;;;;;5.82;5.22;;;;;;;18.57;51.93;100916.84;5865620;30;20063;-91
2022/05/02 11:48:53;;;;;;;5.70;4.90;;;;;;;18.72;50.54;100917.84;5889720;29;20426;-90
2022/05/02 11:51:58;;;;;;;6.30;5.10;;;;;;;18.87;51.44;100912.78;5970601;29;20035;-90
2022/05/02 11:55:01;;;;;;;6.10;5.13;;;;;;;18.87;50.94;100907.53;5976850;29;20042;-91
2022/05/02 11:58:08;;;;;;;6.30;4.70;;;;;;;19.06;49.25;100903.72;5971255;29;20054;-91
2022/05/02 12:01:12;;;;;;;9.68;5.57;;;;;;;19.35;49.19;100905.75;5967111;29;20107;-91
2022/05/02 12:04:19;;;;;;;5.70;4.88;;;;;;;19.50;48.20;100911.13;5969135;29;20160;-91
2022/05/02 12:07:33;;;;;;;8.45;5.00;;;;;;;19.65;49.01;100912.06;5974108;29;20509;-91
2022/05/02 12:11:03;;;;;;;7.00;5.00;;;;;;;19.77;47.92;100905.44;5975330;29;20046;-92
2022/05/02 12:14:24;;;;;;;6.20;4.80;;;;;;;20.05;47.25;100896.25;5927886;29;20067;-92
2022/05/02 12:17:26;;;;;;;9.57;5.88;;;;;;;20.15;46.51;100897.69;5928401;29;20071;-91
2022/05/02 12:20:31;;;;;;;6.63;5.07;;;;;;;20.22;50.23;100893.38;5918670;29;20058;-91
2022/05/02 12:23:35;;;;;;;7.55;5.53;;;;;;;20.26;47.55;100893.00;5919019;29;20043;-91
2022/05/02 12:26:45;;;;;;;8.02;5.20;;;;;;;20.33;48.33;100894.75;5928461;29;20058;-91
2022/05/02 12:29:57;;;;;;;10.00;5.40;;;;;;;20.35;48.24;100892.78;5911438;29;20095;-93
2022/05/02 12:33:04;;;;;;;9.57;5.78;;;;;;;20.34;46.73;100890.31;5922851;30;20051;-92
2022/05/02 12:36:17;;;;;;;7.22;5.47;;;;;;;20.41;47.95;100886.81;5898951;30;20142;-92
2022/05/02 12:39:24;;;;;;;6.25;5.10;;;;;;;20.53;46.99;100881.13;5919789;29;20575;-91
2022/05/02 12:42:35;;;;;;;8.50;6.30;;;;;;;20.61;43.41;100881.91;5922571;29;20047;-91
2022/05/02 12:45:47;;;;;;;8.15;5.90;;;;;;;20.64;45.73;100871.03;5927948;29;20146;-92
2022/05/02 12:49:03;;;;;;;9.00;6.10;;;;;;;20.81;46.28;100873.50;5918577;29;20051;-91
2022/05/02 12:52:06;;;;;;;8.63;6.65;;;;;;;20.80;48.03;100866.59;5964935;29;20061;-91
2022/05/02 12:55:09;;;;;;;8.15;5.93;;;;;;;20.81;46.00;100870.88;5975972;29;20054;-90
2022/05/02 13:01:52;;;;;;;6.85;5.82;;;;;;;20.64;46.94;100862.31;5965680;29;20054;-90
2022/05/02 13:04:55;;;;;;;8.98;6.38;;;;;;;20.84;45.88;100858.19;5970332;29;20515;-90
2022/05/02 13:08:06;;;;;;;10.90;7.25;;;;;;;21.14;45.41;100859.97;5974282;29;20045;-89
2022/05/02 13:11:11;;;;;;;9.82;6.50;;;;;;;21.41;48.49;100861.16;5968664;29;20179;-90
2022/05/02 13:14:22;;;;;;;8.85;6.90;;;;;;;21.58;44.25;100857.31;5970330;29;20042;-90
2022/05/02 13:17:25;;;;;;;8.35;6.85;;;;;;;21.66;43.15;100849.31;5951901;29;20058;-90
2022/05/02 13:20:29;;;;;;;8.40;6.80;;;;;;;21.68;43.57;100844.66;5973385;29;20267;-89
2022/05/02 13:23:46;;;;;;;9.07;7.00;;;;;;;21.78;45.05;100844.34;5970012;29;20301;-89
2022/05/02 13:27:07;;;;;;;9.60;6.40;;;;;;;21.87;43.08;100835.34;5969007;29;20050;-89
2022/05/02 13:30:11;;;;;;;7.28;5.93;;;;;;;21.67;41.34;100837.78;5964802;29;20424;-90
2022/05/02 13:33:16;;;;;;;7.55;5.72;;;;;;;21.57;43.85;100832.00;5970013;29;20056;-90
2022/05/02 13:36:18;;;;;;;9.70;6.20;;;;;;;21.76;44.77;100835.81;5976682;29;20050;-90
2022/05/02 13:39:23;;;;;;;8.30;6.20;;;;;;;22.08;43.36;100831.88;5975125;29;20809;-90
2022/05/02 13:43:11;;;;;;;7.93;6.07;;;;;;;21.71;43.67;100831.13;5972522;29;20058;-90
2022/05/02 13:46:47;;;;;;;7.85;5.78;;;;;;;21.73;43.00;100818.56;5970247;29;20811;-90
2022/05/02 13:50:16;;;;;;;7.07;5.85;;;;;;;22.28;43.12;100818.06;5957659;29;20717;-90
2022/05/02 13:53:56;;;;;;;6.43;5.47;;;;;;;22.91;42.24;100810.19;5971932;29;20071;-89
2022/05/02 13:57:20;;;;;;;7.20;6.13;;;;;;;23.21;38.73;100808.09;5968409;29;20141;-90
2022/05/02 14:04:17;;;;;;;9.80;5.60;;;;;;;23.12;38.55;100804.81;5971706;29;20034;-90
2022/05/02 14:07:19;;;;;;;11.32;5.47;;;;;;;23.42;42.90;100802.66;5966972;29;20493;-88
2022/05/02 14:10:24;;;;;;;10.55;6.32;;;;;;;23.60;37.67;100790.72;5972882;29;20054;-89
2022/05/02 14:13:28;;;;;;;11.18;5.70;;;;;;;23.68;36.09;100798.47;5969071;29;20046;-89
2022/05/02 14:16:34;;;;;;;6.47;5.22;;;;;;;23.78;38.20;100795.47;5961367;29;20062;-89
2022/05/02 14:19:43;;;;;;;7.97;6.35;;;;;;;23.67;39.72;100788.09;5972112;29;20046;-89
2022/05/02 14:22:45;;;;;;;6.70;5.63;;;;;;;23.24;36.92;100788.41;5974111;29;20057;-89
2022/05/02 14:25:47;;;;;;;7.93;5.53;;;;;;;23.11;39.19;100782.06;5978987;29;20113;-88
2022/05/02 14:28:58;;;;;;;7.50;6.07;;;;;;;23.12;36.74;100786.31;5979375;29;20057;-88
2022/05/02 14:32:07;;;;;;;7.78;5.93;;;;;;;22.83;37.35;100782.13;5979433;29;20268;-89
2022/05/02 14:35:09;;;;;;;6.95;5.63;;;;;;;22.95;38.37;100774.44;5987625;29;20077;-89
2022/05/02 14:38:14;;;;;;;6.50;4.85;;;;;;;23.15;37.08;100778.00;5965743;29;20165;-89
2022/05/02 14:41:18;;;;;;;7.20;5.68;;;;;;;23.14;35.55;100772.94;5967338;29;20077;-89
2022/05/02 14:44:23;;;;;;;6.93;5.82;;;;;;;22.38;36.38;100772.91;5972358;29;20043;-87
2022/05/02 14:47:26;;;;;;;7.53;5.88;;;;;;;21.50;38.06;100766.06;5969385;29;20050;-88
2022/05/02 14:50:28;;;;;;;6.75;5.28;;;;;;;20.88;39.23;100763.09;5975459;29;20070;-88
2022/05/02 14:53:41;;;;;;;10.52;5.40;;;;;;;20.37;41.29;100759.31;5957166;29;20046;-88
2022/05/02 14:56:44;;;;;;;8.68;5.70;;;;;;;20.10;42.41;100757.25;5979852;29;20084;-89
2022/05/02 14:59:48;;;;;;;6.18;5.40;;;;;;;19.99;43.05;100754.06;5963030;29;20058;-88
2022/05/02 15:02:53;;;;;;;7.93;5.93;;;;;;;20.02;43.89;100755.53;5974586;29;20162;-89
2022/05/02 15:06:03;;;;;;;6.15;5.30;;;;;;;20.12;41.25;100747.38;5983590;29;20051;-89
2022/05/02 15:10:11;;;;;;;8.70;5.85;;;;;;;20.43;45.10;100742.81;5984249;29;20523;-89
2022/05/02 15:13:02;;;;;;;7.70;5.50;;;;;;;20.97;42.66;100739.13;5977211;29;20090;-88
2022/05/02 15:16:18;;;;;;;7.78;5.30;;;;;;;20.88;40.09;100739.41;5968317;29;20141;-89
2022/05/02 15:19:41;;;;;;;6.80;5.65;;;;;;;20.41;41.13;100734.28;5968181;29;20053;-88
2022/05/02 15:22:50;;;;;;;6.90;5.78;;;;;;;20.26;40.98;100730.84;5954959;29;20326;-88
2022/05/02 15:25:54;;;;;;;7.05;5.57;;;;;;;20.16;43.10;100725.03;5975974;29;20417;-88
2022/05/02 15:39:14;;;;;;;8.50;5.43;;;;;;;21.19;39.85;100721.53;5974903;29;20050;-88
2022/05/02 15:42:16;;;;;;;9.52;5.65;;;;;;;21.25;41.66;100718.16;5968287;29;20827;-93